createdAt,value
2019-05-26T00:00:26.875Z,5.55
2019-05-26T00:02:59.901Z,5.05
2019-05-26T00:05:32.522Z,5.47
2019-05-26T00:08:05.107Z,5.58
2019-05-26T00:10:37.517Z,5.50
2019-05-26T00:13:09.934Z,5.67
2019-05-26T00:15:42.740Z,5.75
2019-05-26T00:18:15.624Z,5.72
2019-05-26T00:20:48.183Z,5.35
2019-05-26T00:23:20.897Z,4.92
2019-05-26T00:25:54.471Z,5.25
2019-05-26T00:28:26.965Z,5.05
2019-05-26T00:30:59.916Z,5.20
2019-05-26T00:33:32.376Z,5.25
2019-05-26T00:36:05.140Z,6.20
2019-05-26T00:38:38.146Z,6.25
2019-05-26T00:41:10.568Z,6.10
2019-05-26T00:43:43.282Z,6.30
2019-05-26T00:46:15.824Z,6.33
2019-05-26T00:48:49.154Z,6.05
2019-05-26T00:51:21.625Z,6.55
2019-05-26T00:53:53.515Z,6.47
2019-05-26T00:56:26.117Z,5.75
2019-05-26T00:58:59.638Z,5.75
2019-05-26T01:01:32.559Z,5.78
2019-05-26T01:04:05.311Z,5.70
2019-05-26T01:06:38.334Z,5.12
2019-05-26T01:09:11.319Z,5.22
2019-05-26T01:11:43.821Z,5.30
2019-05-26T01:14:16.329Z,5.60
2019-05-26T01:16:48.667Z,5.25
2019-05-26T01:19:21.135Z,5.47
2019-05-26T01:21:53.645Z,5.87
2019-05-26T01:24:26.783Z,5.40
2019-05-26T01:26:58.903Z,5.15
2019-05-26T01:29:31.526Z,4.97
2019-05-26T01:32:04.172Z,5.37
2019-05-26T01:34:36.614Z,5.05
2019-05-26T01:37:09.355Z,5.08
2019-05-26T01:39:42.311Z,5.40
2019-05-26T01:42:14.939Z,5.97
2019-05-26T01:44:47.651Z,5.75
2019-05-26T01:47:20.180Z,5.67
2019-05-26T01:49:52.934Z,5.20
2019-05-26T01:52:25.555Z,5.37
2019-05-26T01:54:58.047Z,5.28
2019-05-26T01:57:30.913Z,5.53
2019-05-26T02:00:03.364Z,5.03
2019-05-26T02:02:36.740Z,5.37
2019-05-26T02:05:09.391Z,5.60
2019-05-26T02:07:42.208Z,5.87
2019-05-26T02:10:15.144Z,5.33
2019-05-26T02:12:47.819Z,4.80
2019-05-26T02:15:21.242Z,5.53
2019-05-26T02:17:54.123Z,5.40
2019-05-26T02:20:27.045Z,5.75
2019-05-26T02:22:59.540Z,5.87
2019-05-26T02:25:32.092Z,6.40
2019-05-26T02:28:04.699Z,5.78
2019-05-26T02:30:37.096Z,6.28
2019-05-26T02:33:09.171Z,6.35
2019-05-26T02:35:41.654Z,6.30
2019-05-26T02:38:13.507Z,6.28
2019-05-26T02:40:46.312Z,6.10
2019-05-26T02:43:19.194Z,6.42
2019-05-26T02:45:52.037Z,6.70
2019-05-26T02:48:24.220Z,6.70
2019-05-26T02:50:57.227Z,6.53
2019-05-26T02:53:30.078Z,6.90
2019-05-26T02:56:02.862Z,6.65
2019-05-26T02:58:35.481Z,6.30
2019-05-26T03:01:08.195Z,5.70
2019-05-26T03:03:40.900Z,5.53
2019-05-26T03:06:14.468Z,5.67
2019-05-26T03:08:48.455Z,5.50
2019-05-26T03:11:21.903Z,5.70
2019-05-26T03:13:55.715Z,6.00
2019-05-26T03:16:29.975Z,5.47
2019-05-26T03:19:04.584Z,5.60
2019-05-26T03:21:38.303Z,4.95
2019-05-26T03:24:10.890Z,5.50
2019-05-26T03:26:43.662Z,5.75
2019-05-26T03:29:16.329Z,5.17
2019-05-26T03:31:49.172Z,5.90
2019-05-26T03:34:21.673Z,5.53
2019-05-26T03:36:54.205Z,5.58
2019-05-26T03:39:43.237Z,5.72
2019-05-26T03:42:00.716Z,5.42
2019-05-26T03:44:33.599Z,6.00
2019-05-26T03:47:06.357Z,6.25
2019-05-26T03:49:38.845Z,5.87
2019-05-26T03:52:12.219Z,5.72
2019-05-26T03:54:44.840Z,5.80
2019-05-26T03:57:17.619Z,4.00
2019-05-26T03:59:50.060Z,6.20
2019-05-26T04:02:22.579Z,6.62
2019-05-26T04:04:55.128Z,6.47
2019-05-26T04:07:27.975Z,7.55
2019-05-26T04:10:05.213Z,6.87
2019-05-26T04:12:34.769Z,7.92
2019-05-26T04:15:07.437Z,7.37
2019-05-26T04:17:39.948Z,6.97
2019-05-26T04:20:12.607Z,6.53
2019-05-26T04:22:45.316Z,6.37
2019-05-26T04:25:17.997Z,5.80
2019-05-26T04:27:50.446Z,6.37
2019-05-26T04:30:23.609Z,6.40
2019-05-26T04:32:56.318Z,5.53
2019-05-26T04:35:28.882Z,6.03
2019-05-26T04:38:01.458Z,6.28
2019-05-26T04:40:34.477Z,6.15
2019-05-26T04:43:07.084Z,7.53
2019-05-26T04:45:39.611Z,7.05
2019-05-26T04:48:12.165Z,6.65
2019-05-26T04:50:44.724Z,6.42
2019-05-26T04:53:17.558Z,6.37
2019-05-26T04:55:49.929Z,6.67
2019-05-26T04:58:22.671Z,5.67
2019-05-26T05:00:55.009Z,5.90
2019-05-26T05:03:28.006Z,5.78
2019-05-26T05:06:00.648Z,5.60
2019-05-26T05:08:32.901Z,5.92
2019-05-26T05:11:05.806Z,5.33
2019-05-26T05:13:38.408Z,5.67
2019-05-26T05:16:10.834Z,5.95
2019-05-26T05:18:43.370Z,5.85
2019-05-26T05:21:15.869Z,5.80
2019-05-26T05:23:48.309Z,6.40
2019-05-26T05:26:20.978Z,5.85
2019-05-26T05:28:53.357Z,6.70
2019-05-26T05:31:26.074Z,6.17
2019-05-26T05:33:58.862Z,5.87
2019-05-26T05:36:31.758Z,5.75
2019-05-26T05:39:05.115Z,6.97
2019-05-26T05:41:37.701Z,6.10
2019-05-26T05:44:10.320Z,5.60
2019-05-26T05:46:42.751Z,5.70
2019-05-26T05:49:15.465Z,5.80
2019-05-26T05:51:48.292Z,5.97
2019-05-26T05:54:20.760Z,5.25
2019-05-26T05:56:55.582Z,5.90
2019-05-26T05:59:27.701Z,5.42
2019-05-26T06:02:00.544Z,4.83
2019-05-26T06:04:33.085Z,4.97
2019-05-26T06:07:05.706Z,4.70
2019-05-26T06:09:39.321Z,4.75
2019-05-26T06:12:14.747Z,4.30
2019-05-26T06:14:47.429Z,4.80
2019-05-26T06:17:19.974Z,4.90
2019-05-26T06:19:52.555Z,4.85
2019-05-26T06:22:25.166Z,4.35
2019-05-26T06:24:57.999Z,4.20
2019-05-26T06:27:30.454Z,4.53
2019-05-26T06:30:02.878Z,5.00
2019-05-26T06:32:35.686Z,4.33
2019-05-26T06:35:08.538Z,4.83
2019-05-26T06:37:41.563Z,3.95
2019-05-26T06:40:14.600Z,4.17
2019-05-26T06:45:18.712Z,4.47
2019-05-26T06:50:22.833Z,4.17
2019-05-26T06:52:55.310Z,4.20
2019-05-26T06:55:29.045Z,4.42
2019-05-26T06:58:01.402Z,4.35
2019-05-26T07:00:34.054Z,4.62
2019-05-26T07:03:06.637Z,4.53
2019-05-26T07:05:42.126Z,4.12
2019-05-26T07:08:14.084Z,3.95
2019-05-26T07:10:46.450Z,4.30
2019-05-26T07:13:19.135Z,4.50
2019-05-26T07:15:51.550Z,4.10
2019-05-26T07:18:23.998Z,4.30
2019-05-26T07:20:56.851Z,4.42
2019-05-26T07:23:29.562Z,4.70
2019-05-26T07:26:02.394Z,4.20
2019-05-26T07:28:34.547Z,4.53
2019-05-26T07:31:07.179Z,4.60
2019-05-26T07:33:40.951Z,4.00
2019-05-26T07:36:13.260Z,4.25
2019-05-26T07:38:45.914Z,4.67
2019-05-26T07:41:18.497Z,4.20
2019-05-26T07:43:50.939Z,4.00
2019-05-26T07:46:23.925Z,4.58
2019-05-26T07:48:56.592Z,3.90
2019-05-26T07:51:29.100Z,3.92
2019-05-26T07:54:01.977Z,4.37
2019-05-26T07:56:34.703Z,4.22
2019-05-26T07:59:07.093Z,4.10
2019-05-26T08:01:39.963Z,3.58
2019-05-26T08:04:12.713Z,4.10
2019-05-26T08:06:45.155Z,3.87
2019-05-26T08:09:18.232Z,3.60
2019-05-26T08:11:50.543Z,3.58
2019-05-26T08:14:23.206Z,3.55
2019-05-26T08:16:55.605Z,3.75
2019-05-26T08:19:27.967Z,3.65
2019-05-26T08:22:00.760Z,3.83
2019-05-26T08:24:33.510Z,4.47
2019-05-26T08:27:06.092Z,4.45
2019-05-26T08:32:10.279Z,3.20
2019-05-26T08:34:43.028Z,3.50
2019-05-26T08:37:15.451Z,3.47
2019-05-26T08:39:48.975Z,3.83
2019-05-26T08:42:27.369Z,3.72
2019-05-26T08:44:56.065Z,3.80
2019-05-26T08:47:28.769Z,3.58
2019-05-26T08:50:01.509Z,3.67
2019-05-26T08:52:33.499Z,3.83
2019-05-26T08:55:06.346Z,3.90
2019-05-26T09:00:10.763Z,3.67
2019-05-26T09:02:43.544Z,3.60
2019-05-26T09:05:16.621Z,4.25
2019-05-26T09:07:49.111Z,3.45
2019-05-26T09:10:22.092Z,3.17
2019-05-26T09:13:01.255Z,3.22
2019-05-26T09:15:29.092Z,3.50
2019-05-26T09:18:01.911Z,2.90
2019-05-26T09:23:05.996Z,2.90
2019-05-26T09:28:10.286Z,2.55
2019-05-26T09:30:43.046Z,2.60
2019-05-26T09:33:15.705Z,2.70
2019-05-26T09:35:48.228Z,2.80
2019-05-26T09:38:20.639Z,2.20
2019-05-26T09:40:53.161Z,2.10
2019-05-26T09:43:25.772Z,2.10
2019-05-26T09:45:58.828Z,1.98
2019-05-26T09:48:31.346Z,2.70
2019-05-26T09:51:03.963Z,2.00
2019-05-26T09:53:36.378Z,1.65
2019-05-26T09:56:08.806Z,2.22
2019-05-26T09:58:41.389Z,2.20
2019-05-26T10:01:14.713Z,2.77
2019-05-26T10:03:48.484Z,2.30
2019-05-26T10:06:21.918Z,2.60
2019-05-26T10:08:54.549Z,2.80
2019-05-26T10:11:26.984Z,2.85
2019-05-26T10:13:59.469Z,2.45
2019-05-26T10:16:32.176Z,2.17
2019-05-26T10:19:05.220Z,2.37
2019-05-26T10:21:37.721Z,2.40
2019-05-26T10:24:10.784Z,2.52
2019-05-26T10:26:44.691Z,2.50
2019-05-26T10:29:17.491Z,2.50
2019-05-26T10:34:22.263Z,2.40
2019-05-26T10:39:25.773Z,2.40
2019-05-26T10:41:58.495Z,2.30
2019-05-26T10:47:02.428Z,2.50
2019-05-26T10:49:34.857Z,2.15
2019-05-26T10:52:07.495Z,2.60
2019-05-26T10:54:40.391Z,2.20
2019-05-26T10:57:12.980Z,2.47
2019-05-26T10:59:45.159Z,2.58
2019-05-26T11:02:17.848Z,2.62
2019-05-26T11:07:21.545Z,2.27
2019-05-26T11:09:53.819Z,2.30
2019-05-26T11:12:26.472Z,2.35
2019-05-26T11:14:58.873Z,2.08
2019-05-26T11:17:31.788Z,2.40
2019-05-26T11:20:04.606Z,2.50
2019-05-26T11:22:37.157Z,2.42
2019-05-26T11:25:10.097Z,2.00
2019-05-26T11:27:42.977Z,2.30
2019-05-26T11:30:17.447Z,2.22
2019-05-26T11:32:49.994Z,2.47
2019-05-26T11:35:23.041Z,1.92
2019-05-26T11:37:55.810Z,2.00
2019-05-26T11:40:28.794Z,2.15
2019-05-26T11:43:14.047Z,2.00
2019-05-26T11:45:36.069Z,2.08
2019-05-26T11:48:08.889Z,2.25
2019-05-26T11:50:41.413Z,2.20
2019-05-26T11:53:13.901Z,1.80
2019-05-26T11:55:47.029Z,1.90
2019-05-26T11:58:19.597Z,1.85
2019-05-26T12:00:53.379Z,1.85
2019-05-26T12:03:25.816Z,1.92
2019-05-26T12:05:58.471Z,2.10
2019-05-26T12:11:02.275Z,1.92
2019-05-26T12:16:07.789Z,2.00
2019-05-26T12:21:11.312Z,1.62
2019-05-26T12:23:44.185Z,1.95
2019-05-26T12:26:16.908Z,1.72
2019-05-26T12:28:49.329Z,1.52
2019-05-26T12:31:21.723Z,1.52
2019-05-26T12:33:53.858Z,1.50
2019-05-26T12:36:26.043Z,2.00
2019-05-26T12:38:59.157Z,1.60
2019-05-26T12:41:34.971Z,1.50
2019-05-26T12:44:10.740Z,1.45
2019-05-26T12:49:36.942Z,1.50
2019-05-26T12:52:08.632Z,1.47
2019-05-26T12:54:40.169Z,1.37
2019-05-26T12:57:11.570Z,1.80
2019-05-26T12:59:42.919Z,1.50
2019-05-26T13:02:14.397Z,1.52
2019-05-26T13:04:45.798Z,1.50
2019-05-26T13:07:17.380Z,1.70
2019-05-26T13:09:48.723Z,1.45
2019-05-26T13:12:20.256Z,1.50
2019-05-26T13:15:04.972Z,1.50
2019-05-26T13:17:25.160Z,1.62
2019-05-26T13:19:56.595Z,1.80
2019-05-26T13:22:28.106Z,1.85
2019-05-26T13:24:59.456Z,1.60
2019-05-26T13:27:30.916Z,1.90
2019-05-26T13:30:02.552Z,1.57
2019-05-26T13:32:35.136Z,1.85
2019-05-26T13:35:07.165Z,1.60
2019-05-26T13:37:38.993Z,1.72
2019-05-26T13:40:10.641Z,2.33
2019-05-26T13:42:42.269Z,1.60
2019-05-26T13:45:22.211Z,2.15
2019-05-26T13:47:47.728Z,1.85
2019-05-26T13:50:21.035Z,2.35
2019-05-26T13:52:52.448Z,1.80
2019-05-26T13:55:24.158Z,1.75
2019-05-26T13:57:55.490Z,1.90
2019-05-26T14:00:27.155Z,1.77
2019-05-26T14:02:59.291Z,1.83
2019-05-26T14:05:31.068Z,1.70
2019-05-26T14:08:02.424Z,2.10
2019-05-26T14:10:37.975Z,1.77
2019-05-26T14:13:09.874Z,1.90
2019-05-26T14:15:41.331Z,2.00
2019-05-26T14:18:13.835Z,1.98
2019-05-26T14:20:45.846Z,1.82
2019-05-26T14:23:17.401Z,2.00
2019-05-26T14:25:48.826Z,1.50
2019-05-26T14:28:20.295Z,2.00
2019-05-26T14:30:52.029Z,1.80
2019-05-26T14:33:23.416Z,2.08
2019-05-26T14:35:54.921Z,1.98
2019-05-26T14:38:42.003Z,1.90
2019-05-26T14:40:59.661Z,1.82
2019-05-26T14:43:31.263Z,1.92
2019-05-26T14:46:02.998Z,2.40
2019-05-26T14:48:34.445Z,1.90
2019-05-26T14:51:05.953Z,1.90
2019-05-26T14:53:37.539Z,1.80
2019-05-26T14:56:08.970Z,2.58
2019-05-26T14:58:40.668Z,2.08
2019-05-26T15:01:12.114Z,2.40
2019-05-26T15:03:43.844Z,2.20
2019-05-26T15:06:15.514Z,1.85
2019-05-26T15:08:46.927Z,2.02
2019-05-26T15:11:18.482Z,1.98
2019-05-26T15:13:50.113Z,2.08
2019-05-26T15:16:21.622Z,1.77
2019-05-26T15:18:53.272Z,2.02
2019-05-26T15:21:24.760Z,2.00
2019-05-26T15:23:56.115Z,1.70
2019-05-26T15:26:27.607Z,1.87
2019-05-26T15:28:59.119Z,1.85
2019-05-26T15:31:30.356Z,1.98
2019-05-26T15:34:01.872Z,1.75
2019-05-26T15:36:33.416Z,2.15
2019-05-26T15:39:05.371Z,2.33
2019-05-26T15:41:36.938Z,2.20
2019-05-26T15:44:08.360Z,2.05
2019-05-26T15:46:39.873Z,2.42
2019-05-26T15:49:11.217Z,2.02
2019-05-26T15:51:42.520Z,2.42
2019-05-26T15:54:14.352Z,1.80
2019-05-26T15:56:46.125Z,2.30
2019-05-26T15:59:17.522Z,2.30
2019-05-26T16:01:49.268Z,2.50
2019-05-26T16:04:20.659Z,2.27
2019-05-26T16:06:52.253Z,2.20
2019-05-26T16:09:23.660Z,2.37
2019-05-26T16:11:55.394Z,2.17
2019-05-26T16:14:27.106Z,2.67
2019-05-26T16:16:58.709Z,2.70
2019-05-26T16:19:30.149Z,2.60
2019-05-26T16:22:01.618Z,2.55
2019-05-26T16:24:33.095Z,2.60
2019-05-26T16:27:18.158Z,2.98
2019-05-26T16:29:37.847Z,4.10
2019-05-26T16:32:10.293Z,3.12
2019-05-26T16:34:41.785Z,2.40
2019-05-26T16:37:13.115Z,2.47
2019-05-26T16:39:44.580Z,2.12
2019-05-26T16:42:15.924Z,2.30
2019-05-26T16:44:47.505Z,2.02
2019-05-26T16:47:19.126Z,2.33
2019-05-26T16:49:50.525Z,2.37
2019-05-26T16:52:21.938Z,4.80
2019-05-26T16:54:53.360Z,4.30
2019-05-26T16:57:24.697Z,4.00
2019-05-26T16:59:56.074Z,2.30
2019-05-26T17:02:27.483Z,3.20
2019-05-26T17:04:58.874Z,2.40
2019-05-26T17:07:30.367Z,2.85
2019-05-26T17:10:02.490Z,2.72
2019-05-26T17:12:34.142Z,3.77
2019-05-26T17:15:06.478Z,5.50
2019-05-26T17:17:38.256Z,4.92
2019-05-26T17:20:10.493Z,2.72
2019-05-26T17:22:41.990Z,3.70
2019-05-26T17:25:14.072Z,5.65
2019-05-26T17:27:45.932Z,4.15
2019-05-26T17:30:25.436Z,3.05
2019-05-26T17:32:57.471Z,2.92
2019-05-26T17:35:29.155Z,8.10
2019-05-26T17:38:00.390Z,16.25
2019-05-26T17:40:32.766Z,15.57
2019-05-26T17:43:04.244Z,16.85
2019-05-26T17:45:35.883Z,10.40
2019-05-26T17:48:07.662Z,5.70
2019-05-26T17:50:39.219Z,3.80
2019-05-26T17:53:10.647Z,3.17
2019-05-26T17:55:42.177Z,2.70
2019-05-26T17:58:13.858Z,2.72
2019-05-26T18:00:45.419Z,2.40
2019-05-26T18:03:17.320Z,2.45
2019-05-26T18:05:48.744Z,2.90
2019-05-26T18:08:20.507Z,2.52
2019-05-26T18:10:51.901Z,3.22
2019-05-26T18:13:24.732Z,2.72
2019-05-26T18:15:56.432Z,2.65
2019-05-26T18:18:27.965Z,2.87
2019-05-26T18:20:59.478Z,3.00
2019-05-26T18:23:31.910Z,3.20
2019-05-26T18:26:03.218Z,3.70
2019-05-26T18:28:34.927Z,4.20
2019-05-26T18:31:06.424Z,3.70
2019-05-26T18:33:37.870Z,3.47
2019-05-26T18:36:09.386Z,3.55
2019-05-26T18:38:40.676Z,3.83
2019-05-26T18:41:12.231Z,4.03
2019-05-26T18:43:43.937Z,4.00
2019-05-26T18:46:15.762Z,3.83
2019-05-26T18:48:47.462Z,3.75
2019-05-26T18:51:19.211Z,3.35
2019-05-26T18:53:51.536Z,3.42
2019-05-26T18:56:23.330Z,3.20
2019-05-26T18:58:54.682Z,3.58
2019-05-26T19:01:26.341Z,2.92
2019-05-26T19:03:57.788Z,3.05
2019-05-26T19:06:29.522Z,3.30
2019-05-26T19:09:01.060Z,3.25
2019-05-26T19:11:34.453Z,3.80
2019-05-26T19:14:06.370Z,3.12
2019-05-26T19:16:37.861Z,3.35
2019-05-26T19:19:09.511Z,4.00
2019-05-26T19:21:41.115Z,5.10
2019-05-26T19:24:12.591Z,4.55
2019-05-26T19:26:44.247Z,4.70
2019-05-26T19:29:15.687Z,4.28
2019-05-26T19:31:48.899Z,3.58
2019-05-26T19:34:27.865Z,4.30
2019-05-26T19:37:04.462Z,3.95
2019-05-26T19:39:37.720Z,3.55
2019-05-26T19:42:11.202Z,3.55
2019-05-26T19:44:45.150Z,3.50
2019-05-26T19:47:31.350Z,3.33
2019-05-26T19:50:14.884Z,4.30
2019-05-26T19:52:50.149Z,4.15
2019-05-26T19:55:25.617Z,3.35
2019-05-26T19:57:56.927Z,3.80
2019-05-26T20:00:28.966Z,4.00
2019-05-26T20:03:00.467Z,4.30
2019-05-26T20:05:31.859Z,3.80
2019-05-26T20:08:03.406Z,3.70
2019-05-26T20:10:35.086Z,4.35
2019-05-26T20:13:06.804Z,3.92
2019-05-26T20:15:41.293Z,5.25
2019-05-26T20:18:13.259Z,4.40
2019-05-26T20:20:44.738Z,3.83
2019-05-26T20:23:20.416Z,3.40
2019-05-26T20:25:53.932Z,3.45
2019-05-26T20:28:28.246Z,3.60
2019-05-26T20:31:04.248Z,3.40
2019-05-26T20:33:37.882Z,3.15
2019-05-26T20:36:11.193Z,2.77
2019-05-26T20:38:44.230Z,2.98
2019-05-26T20:44:02.094Z,3.17
2019-05-26T20:46:33.971Z,3.15
2019-05-26T20:49:05.670Z,3.50
2019-05-26T20:51:37.235Z,3.10
2019-05-26T20:54:08.702Z,3.02
2019-05-26T20:56:40.257Z,3.33
2019-05-26T20:59:11.751Z,3.40
2019-05-26T21:01:43.289Z,3.40
2019-05-26T21:04:14.769Z,3.00
2019-05-26T21:06:47.785Z,3.77
2019-05-26T21:11:49.629Z,3.42
2019-05-26T21:14:22.324Z,3.47
2019-05-26T21:16:53.751Z,3.62
2019-05-26T21:19:25.581Z,3.80
2019-05-26T21:21:57.042Z,3.60
2019-05-26T21:24:28.760Z,3.95
2019-05-26T21:27:00.167Z,3.40
2019-05-26T21:29:31.675Z,3.70
2019-05-26T21:32:03.261Z,4.37
2019-05-26T21:34:34.774Z,5.62
2019-05-26T21:37:06.694Z,5.40
2019-05-26T21:39:38.242Z,5.00
2019-05-26T21:42:09.952Z,5.17
2019-05-26T21:44:41.448Z,4.65
2019-05-26T21:47:12.771Z,4.58
2019-05-26T21:49:44.809Z,4.35
2019-05-26T21:52:16.491Z,4.45
2019-05-26T21:54:47.820Z,3.62
2019-05-26T21:57:21.506Z,3.42
2019-05-26T21:59:54.494Z,3.55
2019-05-26T22:02:27.752Z,3.62
2019-05-26T22:05:00.883Z,3.62
2019-05-26T22:07:35.111Z,3.50
2019-05-26T22:12:40.179Z,3.77
2019-05-26T22:15:13.414Z,3.70
2019-05-26T22:17:47.296Z,3.87
2019-05-26T22:20:20.369Z,4.12
2019-05-26T22:25:21.791Z,4.53
2019-05-26T22:27:53.474Z,4.28
2019-05-26T22:30:25.061Z,3.85
2019-05-26T22:32:56.762Z,3.95
2019-05-26T22:35:28.259Z,3.65
2019-05-26T22:37:59.711Z,3.70
2019-05-26T22:40:31.305Z,3.67
2019-05-26T22:43:02.775Z,3.90
2019-05-26T22:45:34.380Z,4.05
2019-05-26T22:48:05.974Z,4.00
2019-05-26T22:50:37.377Z,3.80
2019-05-26T22:53:08.799Z,3.80
2019-05-26T22:55:40.242Z,4.40
2019-05-26T22:58:11.804Z,3.83
2019-05-26T23:00:43.557Z,4.40
2019-05-26T23:03:15.173Z,4.22
2019-05-26T23:05:46.923Z,4.58
2019-05-26T23:08:18.347Z,4.28
2019-05-26T23:10:50.025Z,3.98
2019-05-26T23:13:21.375Z,4.42
2019-05-26T23:15:53.155Z,4.50
2019-05-26T23:18:24.492Z,5.03
2019-05-26T23:20:56.132Z,4.70
2019-05-26T23:23:27.617Z,4.50
2019-05-26T23:25:59.462Z,4.55
2019-05-26T23:28:30.926Z,4.33
2019-05-26T23:31:03.747Z,4.55
2019-05-26T23:33:35.310Z,4.25
2019-05-26T23:36:06.745Z,4.12
2019-05-26T23:38:38.445Z,4.95
2019-05-26T23:41:10.187Z,4.12
2019-05-26T23:43:43.027Z,4.58
2019-05-26T23:46:14.429Z,4.83
2019-05-26T23:48:45.833Z,4.65
2019-05-26T23:51:17.580Z,4.65
2019-05-26T23:53:49.090Z,4.65
2019-05-26T23:56:20.433Z,4.97
2019-05-26T23:58:52.149Z,4.70
